createdAt,value
2023-04-16T00:02:25.000Z,21.41
2023-04-16T00:07:25.000Z,20.12
2023-04-16T00:12:26.000Z,20.26
2023-04-16T00:17:25.000Z,23.32
2023-04-16T00:22:25.000Z,20.73
2023-04-16T00:27:25.000Z,23.01
2023-04-16T00:32:25.000Z,27.67
2023-04-16T00:37:25.000Z,27.74
2023-04-16T00:42:25.000Z,20.62
2023-04-16T00:47:25.000Z,19.53
2023-04-16T00:52:25.000Z,18.64
2023-04-16T00:57:25.000Z,20.77
2023-04-16T01:02:24.000Z,21.98
2023-04-16T01:07:25.000Z,23.23
2023-04-16T01:12:25.000Z,24.02
2023-04-16T01:17:25.000Z,22.4
2023-04-16T01:22:25.000Z,22.01
2023-04-16T01:27:25.000Z,17.61
2023-04-16T01:32:25.000Z,18.72
2023-04-16T01:37:26.000Z,19.25
2023-04-16T01:42:25.000Z,19.48
2023-04-16T01:47:26.000Z,23.83
2023-04-16T01:52:26.000Z,21.03
2023-04-16T01:57:26.000Z,19.51
2023-04-16T02:02:25.000Z,18.38
2023-04-16T02:07:26.000Z,18.62
2023-04-16T02:12:25.000Z,16.44
2023-04-16T02:17:26.000Z,18.31
2023-04-16T02:22:25.000Z,18.29
2023-04-16T02:27:26.000Z,21.34
2023-04-16T02:32:25.000Z,18.3
2023-04-16T02:37:25.000Z,17.52
2023-04-16T02:42:26.000Z,18.71
2023-04-16T02:47:25.000Z,19.66
2023-04-16T02:52:26.000Z,17.27
2023-04-16T02:57:25.000Z,16.06
2023-04-16T03:02:25.000Z,16.7
2023-04-16T03:07:25.000Z,24.12
2023-04-16T03:12:26.000Z,23.57
2023-04-16T03:17:25.000Z,16.94
2023-04-16T03:22:26.000Z,16.72
2023-04-16T03:27:26.000Z,18.34
2023-04-16T03:32:25.000Z,18.55
2023-04-16T03:37:25.000Z,15.82
2023-04-16T03:42:25.000Z,17.27
2023-04-16T03:47:25.000Z,18.59
2023-04-16T03:52:25.000Z,19.36
2023-04-16T03:57:25.000Z,17.89
2023-04-16T04:02:25.000Z,16.54
2023-04-16T04:07:25.000Z,16.9
2023-04-16T04:12:25.000Z,15.88
2023-04-16T04:17:25.000Z,16.67
2023-04-16T04:22:25.000Z,17.16
2023-04-16T04:27:25.000Z,18.77
2023-04-16T04:32:25.000Z,19.33
2023-04-16T04:37:25.000Z,16.84
2023-04-16T04:42:25.000Z,17.74
2023-04-16T04:47:25.000Z,16.64
2023-04-16T04:52:25.000Z,15.77
2023-04-16T04:57:26.000Z,15.95
2023-04-16T05:02:25.000Z,23.95
2023-04-16T05:07:26.000Z,18.14
2023-04-16T05:12:25.000Z,10.97
2023-04-16T05:17:26.000Z,9.19
2023-04-16T05:22:25.000Z,9.72
2023-04-16T05:27:25.000Z,8.93
2023-04-16T05:32:25.000Z,9.15
2023-04-16T05:37:25.000Z,9.03
2023-04-16T05:42:26.000Z,9.74
2023-04-16T05:47:25.000Z,9.83
2023-04-16T05:52:25.000Z,9.45
2023-04-16T05:57:25.000Z,8.66
2023-04-16T06:02:25.000Z,8.04
2023-04-16T06:07:25.000Z,11.57
2023-04-16T06:12:25.000Z,14.38
2023-04-16T06:17:25.000Z,9.93
2023-04-16T06:22:26.000Z,8.25
2023-04-16T06:27:25.000Z,8.23
2023-04-16T06:32:26.000Z,10.57
2023-04-16T06:37:26.000Z,9.06
2023-04-16T06:42:26.000Z,9.51
2023-04-16T06:47:25.000Z,8.82
2023-04-16T06:52:25.000Z,8.88
2023-04-16T06:57:25.000Z,8.79
2023-04-16T07:02:25.000Z,9.32
2023-04-16T07:07:25.000Z,8.43
2023-04-16T07:12:25.000Z,7.78
2023-04-16T07:17:25.000Z,7.77
2023-04-16T07:22:25.000Z,7.76
2023-04-16T07:27:25.000Z,7.79
2023-04-16T07:32:25.000Z,7.45
2023-04-16T07:37:25.000Z,7.45
2023-04-16T07:42:26.000Z,7.57
2023-04-16T07:47:26.000Z,9.33
2023-04-16T07:52:26.000Z,7.21
2023-04-16T07:57:25.000Z,9.14
2023-04-16T08:02:25.000Z,9.46
2023-04-16T08:07:25.000Z,9.41
2023-04-16T08:12:26.000Z,9.96
2023-04-16T08:17:26.000Z,9
2023-04-16T08:22:25.000Z,8.63
2023-04-16T08:27:25.000Z,9.88
2023-04-16T08:32:25.000Z,12.18
2023-04-16T08:37:26.000Z,10.18
2023-04-16T08:42:25.000Z,9.43
2023-04-16T08:47:25.000Z,9.7
2023-04-16T08:52:25.000Z,10.42
2023-04-16T08:57:26.000Z,8.42
2023-04-16T09:02:25.000Z,8.18
2023-04-16T09:07:25.000Z,8.58
2023-04-16T09:12:25.000Z,7.59
2023-04-16T09:17:25.000Z,7.09
2023-04-16T09:22:24.000Z,7.82
2023-04-16T09:27:25.000Z,7.97
2023-04-16T09:32:25.000Z,7.51
2023-04-16T09:37:25.000Z,7.02
2023-04-16T09:42:25.000Z,7.36
2023-04-16T09:47:25.000Z,7.86
2023-04-16T09:52:24.000Z,7.49
2023-04-16T09:57:25.000Z,7.56
2023-04-16T10:02:25.000Z,7.63
2023-04-16T10:07:25.000Z,7.38
2023-04-16T10:12:25.000Z,7.95
2023-04-16T10:17:25.000Z,8.94
2023-04-16T10:22:25.000Z,7.39
2023-04-16T10:27:25.000Z,7.68
2023-04-16T10:32:25.000Z,7.74
2023-04-16T10:37:25.000Z,8.16
2023-04-16T10:42:25.000Z,7.22
2023-04-16T10:47:25.000Z,7.64
2023-04-16T10:52:24.000Z,7.62
2023-04-16T10:57:25.000Z,7.93
2023-04-16T11:02:25.000Z,9.02
2023-04-16T11:07:25.000Z,8.91
2023-04-16T11:12:25.000Z,9.06
2023-04-16T11:17:25.000Z,9.2
2023-04-16T11:22:25.000Z,8.61
2023-04-16T11:27:25.000Z,9.11
2023-04-16T11:32:25.000Z,8.99
2023-04-16T11:37:26.000Z,9.81
2023-04-16T11:42:25.000Z,9.06
2023-04-16T11:47:25.000Z,8.97
2023-04-16T11:52:25.000Z,10.52
2023-04-16T11:57:25.000Z,8.5
2023-04-16T12:02:25.000Z,8.8
2023-04-16T12:07:25.000Z,9.38
2023-04-16T12:12:25.000Z,9.86
2023-04-16T12:17:25.000Z,10.47
2023-04-16T12:22:25.000Z,8.13
2023-04-16T12:27:26.000Z,8.47
2023-04-16T12:32:25.000Z,8.54
2023-04-16T12:37:25.000Z,7.75
2023-04-16T12:42:25.000Z,8.51
2023-04-16T12:47:25.000Z,8.11
2023-04-16T12:52:26.000Z,9.02
2023-04-16T12:57:25.000Z,8.95
2023-04-16T13:02:25.000Z,9
2023-04-16T13:07:26.000Z,9
2023-04-16T13:12:26.000Z,9.6
2023-04-16T13:17:25.000Z,9.49
2023-04-16T13:22:25.000Z,9.01
2023-04-16T13:27:26.000Z,9.48
2023-04-16T13:32:25.000Z,9.48
2023-04-16T13:37:25.000Z,9.88
2023-04-16T13:42:25.000Z,9.03
2023-04-16T13:47:25.000Z,9.62
2023-04-16T13:52:25.000Z,9.1
2023-04-16T13:57:25.000Z,9.78
2023-04-16T14:02:25.000Z,10.29
2023-04-16T14:07:25.000Z,9.85
2023-04-16T14:12:25.000Z,9.78
2023-04-16T14:17:25.000Z,10.47
2023-04-16T14:22:25.000Z,9.84
2023-04-16T14:27:25.000Z,9.32
2023-04-16T14:32:25.000Z,9.56
2023-04-16T14:37:25.000Z,9.55
2023-04-16T14:42:26.000Z,9.5
2023-04-16T14:47:26.000Z,10.38
2023-04-16T14:52:25.000Z,9.57
2023-04-16T14:57:26.000Z,9.89
2023-04-16T15:02:25.000Z,9.61
2023-04-16T15:07:25.000Z,9.77
2023-04-16T15:12:25.000Z,10.06
2023-04-16T15:17:25.000Z,10.77
2023-04-16T15:22:26.000Z,10.28
2023-04-16T15:27:26.000Z,19.81
2023-04-16T15:32:25.000Z,16.37
2023-04-16T15:37:26.000Z,12.73
2023-04-16T15:42:25.000Z,12.24
2023-04-16T15:47:26.000Z,11.66
2023-04-16T15:52:25.000Z,12.46
2023-04-16T15:57:25.000Z,13.33
2023-04-16T16:02:25.000Z,10.87
2023-04-16T16:07:25.000Z,11.07
2023-04-16T16:12:25.000Z,11.98
2023-04-16T16:17:26.000Z,13.38
2023-04-16T16:22:25.000Z,15.26
2023-04-16T16:27:25.000Z,15.96
2023-04-16T16:32:25.000Z,16.34
2023-04-16T16:37:25.000Z,18.36
2023-04-16T16:42:25.000Z,15.64
2023-04-16T16:47:24.000Z,13.56
2023-04-16T16:52:26.000Z,13.15
2023-04-16T16:57:25.000Z,14.85
2023-04-16T17:02:25.000Z,15.83
2023-04-16T17:07:25.000Z,17.44
2023-04-16T17:12:25.000Z,17.75
2023-04-16T17:17:25.000Z,17.4
2023-04-16T17:22:25.000Z,17.43
2023-04-16T17:27:25.000Z,18.65
2023-04-16T17:32:25.000Z,20.26
2023-04-16T17:37:25.000Z,20.27
2023-04-16T17:42:25.000Z,18.68
2023-04-16T17:47:25.000Z,18.07
2023-04-16T17:52:26.000Z,18.35
2023-04-16T17:57:25.000Z,23.07
2023-04-16T18:02:25.000Z,20.9
2023-04-16T18:07:25.000Z,19.48
2023-04-16T18:12:26.000Z,19.42
2023-04-16T18:17:25.000Z,17.95
2023-04-16T18:22:25.000Z,17.54
2023-04-16T18:27:26.000Z,17.85
2023-04-16T18:32:25.000Z,17.75
2023-04-16T18:37:25.000Z,19.07
2023-04-16T18:42:25.000Z,17.28
2023-04-16T18:47:26.000Z,16.17
2023-04-16T18:52:25.000Z,16.69
2023-04-16T18:57:25.000Z,15.73
2023-04-16T19:02:25.000Z,15.49
2023-04-16T19:07:25.000Z,15.68
2023-04-16T19:12:26.000Z,14.95
2023-04-16T19:17:26.000Z,14.73
2023-04-16T19:22:26.000Z,14.67
2023-04-16T19:27:25.000Z,14.53
2023-04-16T19:32:26.000Z,14.21
2023-04-16T19:37:25.000Z,14.59
2023-04-16T19:42:25.000Z,13.71
2023-04-16T19:47:25.000Z,13.87
2023-04-16T19:52:25.000Z,14.52
2023-04-16T19:57:26.000Z,13.94
2023-04-16T20:02:26.000Z,14.07
2023-04-16T20:07:26.000Z,14.64
2023-04-16T20:12:25.000Z,14.8
2023-04-16T20:17:26.000Z,14.94
2023-04-16T20:22:25.000Z,13.66
2023-04-16T20:27:25.000Z,14.2
2023-04-16T20:32:26.000Z,13.77
2023-04-16T20:37:25.000Z,13.96
2023-04-16T20:42:25.000Z,13.72
2023-04-16T20:47:25.000Z,13.89
2023-04-16T20:52:25.000Z,14.23
2023-04-16T20:57:25.000Z,14.45
2023-04-16T21:02:25.000Z,14.69
2023-04-16T21:07:26.000Z,15.67
2023-04-16T21:12:25.000Z,15.49
2023-04-16T21:17:26.000Z,15.83
2023-04-16T21:22:25.000Z,15.15
2023-04-16T21:27:25.000Z,15.33
2023-04-16T21:32:25.000Z,15.41
2023-04-16T21:37:26.000Z,14.84
2023-04-16T21:42:25.000Z,13.96
2023-04-16T21:47:26.000Z,13.83
2023-04-16T21:52:24.000Z,13.78
2023-04-16T21:57:25.000Z,14.11
2023-04-16T22:02:25.000Z,14.8
2023-04-16T22:07:25.000Z,13.76
2023-04-16T22:12:25.000Z,13.62
2023-04-16T22:17:25.000Z,13.43
2023-04-16T22:22:25.000Z,13.66
2023-04-16T22:27:26.000Z,13.24
2023-04-16T22:32:26.000Z,13.28
2023-04-16T22:37:25.000Z,13.47
2023-04-16T22:42:25.000Z,14.18
2023-04-16T22:47:26.000Z,13.61
2023-04-16T22:52:25.000Z,13.34
2023-04-16T22:57:25.000Z,14.24
2023-04-16T23:02:25.000Z,13.07
2023-04-16T23:07:25.000Z,13.07
2023-04-16T23:12:25.000Z,13.15
2023-04-16T23:17:25.000Z,13.07
2023-04-16T23:22:25.000Z,14.97
2023-04-16T23:27:25.000Z,13.94
2023-04-16T23:32:26.000Z,13.58
2023-04-16T23:37:26.000Z,13.1
2023-04-16T23:42:25.000Z,17.31
2023-04-16T23:47:26.000Z,17.44
2023-04-16T23:52:25.000Z,17.44
2023-04-16T23:57:25.000Z,17.77
